Time;durP1;ratioP1;P1;durP2;ratioP2;P2;SDS_P1;SDS_P2;PMS_P1;PMS_P2;Temp;Humidity;BMP_temperature;BMP_pressure;BME280_temperature;BME280_humidity;BME280_pressure;Samples;Min_cycle;Max_cycle;Signal;HPM_P1;HPM_P2
2021/03/07 00:00:51;;;;;;;23.73;11.88;;;77.50;1536.00;;;;;;5034753;28;19982;-77
2021/03/07 00:03:16;;;;;;;;;;;77.50;1536.00;;;;;;5016807;28;20026;-77
2021/03/07 00:05:42;;;;;;;24.98;12.25;;;77.50;1561.60;;;;;;5017187;28;19909;-78
2021/03/07 00:08:08;;;;;;;;;;;77.60;1561.60;;;;;;5017723;28;20025;-77
2021/03/07 00:10:34;;;;;;;21.45;13.05;;;77.60;1561.60;;;;;;5035321;28;19913;-78
2021/03/07 00:12:59;;;;;;;23.23;13.40;;;77.60;1561.60;;;;;;5033803;28;20093;-78
2021/03/07 00:15:25;;;;;;;30.23;14.23;;;77.70;1536.00;;;;;;5014780;28;20030;-78
2021/03/07 00:17:51;;;;;;;;;;;77.70;1536.00;;;;;;5018681;28;20036;-77
2021/03/07 00:20:21;;;;;;;21.63;11.40;;;77.70;1536.00;;;;;;5040677;28;19905;-77
2021/03/07 00:22:47;;;;;;;24.13;11.52;;;77.60;1536.00;;;;;;5022358;28;20029;-78
2021/03/07 00:25:16;;;;;;;20.73;10.90;;;77.70;1536.00;;;;;;5033841;28;20072;-77
2021/03/07 00:27:42;;;;;;;19.42;9.98;;;77.70;1510.40;;;;;;5040075;28;20068;-78
2021/03/07 00:30:09;;;;;;;;;;;77.70;1510.40;;;;;;5027298;28;20029;-78
2021/03/07 00:32:35;;;;;;;16.75;8.90;;;77.70;1484.80;;;;;;5024762;28;20391;-78
2021/03/07 00:35:01;;;;;;;;;;;77.70;1484.80;;;;;;5025901;28;20040;-77
2021/03/07 00:37:27;;;;;;;18.88;10.90;;;77.70;1484.80;;;;;;5020317;28;19972;-78
2021/03/07 00:39:53;;;;;;;21.85;10.73;;;77.70;1484.80;;;;;;5014589;28;20056;-77
2021/03/07 00:42:18;;;;;;;;;;;77.70;1484.80;;;;;;5018397;28;20159;-77
2021/03/07 00:44:44;;;;;;;19.75;10.05;;;102.40;1484.80;;;;;;5016500;28;19999;-77
2021/03/07 00:47:16;;;;;;;;;;;77.70;1510.40;;;;;;5033392;28;20030;-77
2021/03/07 00:49:42;;;;;;;19.60;10.00;;;77.60;1536.00;;;;;;5017567;28;19905;-77
2021/03/07 00:52:08;;;;;;;19.60;10.95;;;77.40;1561.60;;;;;;5019654;28;20021;-77
2021/03/07 00:54:34;;;;;;;20.85;10.80;;;77.40;1561.60;;;;;;5018485;28;20045;-78
2021/03/07 00:57:00;;;;;;;;;;;77.40;1561.60;;;;;;5027315;28;20123;-77
2021/03/07 00:59:25;;;;;;;22.70;9.85;;;77.40;1561.60;;;;;;5021099;28;19995;-78
2021/03/07 01:01:51;;;;;;;;;;;77.30;1587.20;;;;;;5034833;28;20026;-77
2021/03/07 01:04:20;;;;;;;19.52;9.88;;;77.30;1587.20;;;;;;5017360;28;19905;-77
2021/03/07 01:06:46;;;;;;;19.48;10.70;;;77.20;1587.20;;;;;;5019145;28;20061;-78
2021/03/07 01:09:12;;;;;;;23.35;11.68;;;77.10;1587.20;;;;;;5023206;28;20084;-78
2021/03/07 01:11:38;;;;;;;23.83;12.50;;;77.00;1587.20;;;;;;5017017;28;20519;-77
2021/03/07 01:14:05;;;;;;;23.27;12.52;;;76.90;1561.60;;;;;;5035533;28;20053;-78
2021/03/07 01:16:31;;;;;;;34.92;14.40;;;52.10;1587.20;;;;;;5036231;28;20116;-78
2021/03/07 01:18:57;;;;;;;30.00;14.65;;;51.70;1587.20;;;;;;5018755;28;20091;-77
2021/03/07 01:21:22;;;;;;;;;;;51.20;1587.20;;;;;;5018919;28;20477;-78
2021/03/07 01:23:48;;;;;;;29.70;13.20;;;26.30;1561.60;;;;;;5021501;28;19952;-77
2021/03/07 01:26:14;;;;;;;31.00;14.13;;;26.10;1561.60;;;;;;5026895;28;20057;-78
2021/03/07 01:28:40;;;;;;;;;;;25.70;1587.20;;;;;;5029076;28;20087;-76
2021/03/07 01:31:05;;;;;;;30.58;14.48;;;26.00;1561.60;;;;;;5046343;28;20265;-78
2021/03/07 01:33:31;;;;;;;;;;;26.10;1561.60;;;;;;5026877;28;20028;-78
2021/03/07 01:36:02;;;;;;;27.05;13.18;;;25.60;1587.20;;;;;;5046306;28;19935;-78
2021/03/07 01:38:29;;;;;;;29.92;13.52;;;0.60;1612.80;;;;;;5043901;28;20111;-78
2021/03/07 01:40:54;;;;;;;28.25;13.00;;;0.40;1587.20;;;;;;5027961;28;20051;-78
2021/03/07 01:43:22;;;;;;;28.88;14.07;;;0.20;1561.60;;;;;;5033058;28;20389;-78
2021/03/07 01:45:49;;;;;;;27.95;13.48;;;0.50;1561.60;;;;;;5029466;28;20026;-78
2021/03/07 01:48:15;;;;;;;27.40;13.07;;;0.00;1587.20;;;;;;5027422;28;20539;-78
2021/03/07 01:50:45;;;;;;;24.98;12.32;;;13.10;1638.40;;;;;;5020824;28;20030;-79
2021/03/07 01:53:10;;;;;;;22.52;12.13;;;13.20;1638.40;;;;;;5025333;28;20029;-79
2021/03/07 01:55:38;;;;;;;26.17;12.60;;;13.20;1638.40;;;;;;5036785;28;20028;-78
2021/03/07 01:58:10;;;;;;;23.27;11.75;;;13.20;1664.00;;;;;;5031430;28;20140;-78
2021/03/07 02:00:36;;;;;;;25.88;12.45;;;13.10;1638.40;;;;;;5036578;28;20029;-78
2021/03/07 02:03:02;;;;;;;21.20;10.88;;;13.30;1664.00;;;;;;5022264;28;20029;-77
2021/03/07 02:05:28;;;;;;;;;;;13.40;1689.60;;;;;;5049134;28;20056;-80
2021/03/07 02:07:54;;;;;;;23.80;11.70;;;13.50;1740.80;;;;;;5036592;28;19913;-80
2021/03/07 02:10:22;;;;;;;22.23;10.68;;;13.60;1715.20;;;;;;5016559;28;20034;-80
2021/03/07 02:12:51;;;;;;;23.63;11.02;;;13.50;1715.20;;;;;;5046276;28;20030;-77
2021/03/07 02:15:18;;;;;;;24.00;10.52;;;13.60;1740.80;;;;;;5028270;28;20481;-78
2021/03/07 02:17:44;;;;;;;21.25;11.40;;;13.50;1740.80;;;;;;5031574;28;20388;-78
2021/03/07 02:20:12;;;;;;;19.75;10.95;;;13.30;1740.80;;;;;;5044722;28;20048;-80
2021/03/07 02:22:47;;;;;;;25.75;11.40;;;13.20;1740.80;;;;;;5046065;28;20100;-79
2021/03/07 02:25:13;;;;;;;18.02;10.73;;;13.10;1766.40;;;;;;5025204;28;20021;-78
2021/03/07 02:27:39;;;;;;;20.27;10.75;;;13.20;1766.40;;;;;;5030621;28;20112;-79
2021/03/07 02:30:11;;;;;;;22.38;10.98;;;13.20;1766.40;;;;;;5029400;28;20061;-78
2021/03/07 02:32:42;;;;;;;24.58;12.05;;;13.20;1740.80;;;;;;5032242;28;20125;-79
2021/03/07 02:35:13;;;;;;;25.83;13.23;;;13.10;1740.80;;;;;;5034345;28;20499;-77
2021/03/07 02:37:44;;;;;;;28.45;12.70;;;12.90;1740.80;;;;;;5046953;28;20087;-78
2021/03/07 02:40:12;;;;;;;22.27;12.00;;;13.10;1766.40;;;;;;5029899;28;20026;-79
2021/03/07 02:42:40;;;;;;;24.73;11.93;;;13.20;1766.40;;;;;;5047116;28;20464;-79
2021/03/07 02:45:13;;;;;;;23.13;12.43;;;13.10;1792.00;;;;;;5029871;28;20078;-79
2021/03/07 02:47:45;;;;;;;22.00;11.13;;;12.90;1792.00;;;;;;5046577;28;20104;-80
2021/03/07 02:50:16;;;;;;;29.63;12.60;;;0.00;1766.40;;;;;;5029808;28;20100;-80
2021/03/07 02:52:51;;;;;;;25.70;12.70;;;0.00;1766.40;;;;;;5048236;28;20492;-79
2021/03/07 02:55:19;;;;;;;24.48;11.80;;;12.90;1766.40;;;;;;5028753;28;20037;-78
2021/03/07 02:57:48;;;;;;;23.52;12.27;;;12.90;1766.40;;;;;;5021919;28;20056;-79
2021/03/07 03:00:15;;;;;;;25.23;12.38;;;13.10;1792.00;;;;;;5026213;28;20036;-78
2021/03/07 03:02:43;;;;;;;34.50;14.30;;;13.20;1792.00;;;;;;5045553;28;20399;-78
2021/03/07 03:05:11;;;;;;;22.30;11.57;;;13.20;1817.60;;;;;;5026104;28;20033;-79
2021/03/07 03:07:38;;;;;;;26.40;11.95;;;13.40;1792.00;;;;;;5027415;28;20034;-79
2021/03/07 03:10:06;;;;;;;27.25;11.40;;;13.40;1817.60;;;;;;5029148;28;20017;-78
2021/03/07 03:12:35;;;;;;;22.60;10.15;;;13.40;1817.60;;;;;;5048351;28;20017;-80
2021/03/07 03:15:01;;;;;;;18.63;9.10;;;13.50;1843.20;;;;;;5043274;28;20021;-77
2021/03/07 03:17:27;;;;;;;;;;;13.60;1868.80;;;;;;5029497;28;20106;-76
2021/03/07 03:19:55;;;;;;;21.70;10.93;;;38.40;1868.80;;;;;;5043205;28;19959;-78
2021/03/07 03:22:21;;;;;;;20.63;10.55;;;13.70;1868.80;;;;;;5027853;28;20017;-78
2021/03/07 03:24:47;;;;;;;16.88;9.38;;;13.70;1868.80;;;;;;5026184;28;20025;-78
2021/03/07 03:27:14;;;;;;;18.02;9.88;;;38.50;1868.80;;;;;;5026268;28;20023;-78
2021/03/07 03:29:40;;;;;;;24.75;10.82;;;13.70;1868.80;;;;;;5027873;28;20108;-77
2021/03/07 03:32:06;;;;;;;20.27;10.63;;;38.40;1868.80;;;;;;5028623;28;20112;-78
2021/03/07 03:34:32;;;;;;;;;;;38.50;1868.80;;;;;;5026227;28;20037;-78
2021/03/07 03:36:58;;;;;;;19.27;10.88;;;38.60;1894.40;;;;;;5043427;28;19924;-78
2021/03/07 03:39:25;;;;;;;;;;;38.60;1920.00;;;;;;5045964;28;20020;-79
2021/03/07 03:41:55;;;;;;;15.82;8.23;;;38.50;1920.00;;;;;;5044315;28;19943;-78
2021/03/07 03:44:28;;;;;;;23.48;11.30;;;38.50;1920.00;;;;;;5043787;28;20022;-78
2021/03/07 03:46:58;;;;;;;32.60;13.15;;;13.70;1920.00;;;;;;5027684;28;20021;-78
2021/03/07 03:49:54;;;;;;;21.08;12.88;;;13.60;1894.40;;;;;;5043686;28;20032;-78
2021/03/07 03:52:25;;;;;;;23.30;11.23;;;13.60;1894.40;;;;;;5046064;28;20013;-78
2021/03/07 03:55:00;;;;;;;23.67;11.75;;;13.60;1868.80;;;;;;5025219;28;20064;-78
2021/03/07 03:57:29;;;;;;;21.40;12.25;;;13.60;1868.80;;;;;;5023715;28;20129;-78
2021/03/07 03:59:57;;;;;;;24.77;11.15;;;38.40;1894.40;;;;;;5026572;28;20067;-78
2021/03/07 04:02:25;;;;;;;27.27;11.88;;;13.70;1894.40;;;;;;5024790;28;20025;-78
2021/03/07 04:04:54;;;;;;;25.02;13.02;;;38.50;1894.40;;;;;;5043981;28;20017;-78
2021/03/07 04:07:23;;;;;;;24.77;12.68;;;38.40;1894.40;;;;;;5024303;28;20021;-78
2021/03/07 04:09:50;;;;;;;23.50;12.45;;;38.50;1894.40;;;;;;5022901;28;20504;-77
2021/03/07 04:12:16;;;;;;;27.40;12.73;;;38.70;1920.00;;;;;;5025351;28;20052;-79
2021/03/07 04:14:43;;;;;;;29.67;13.93;;;38.70;1920.00;;;;;;5026772;28;20495;-78
2021/03/07 04:17:09;;;;;;;31.20;13.65;;;38.60;1894.40;;;;;;5026817;28;20120;-78
2021/03/07 04:19:34;;;;;;;;;;;38.70;1945.60;;;;;;5026346;28;20048;-78
2021/03/07 04:22:01;;;;;;;23.33;12.05;;;38.90;1971.20;;;;;;5042774;28;19905;-78
2021/03/07 04:24:27;;;;;;;29.38;13.35;;;38.90;1971.20;;;;;;5021945;28;20022;-78
2021/03/07 04:26:53;;;;;;;;;;;39.00;1996.80;;;;;;5026325;28;20028;-78
2021/03/07 04:29:21;;;;;;;30.08;14.38;;;39.10;2022.40;;;;;;5026155;28;19968;-77
2021/03/07 04:31:47;;;;;;;32.67;14.10;;;39.20;2022.40;;;;;;5023934;28;20020;-78
2021/03/07 04:34:14;;;;;;;30.63;15.18;;;39.30;1996.80;;;;;;5041626;28;20028;-78
2021/03/07 04:36:41;;;;;;;29.40;14.40;;;39.30;2048.00;;;;;;5027365;28;20175;-78
2021/03/07 04:39:07;;;;;;;33.50;16.20;;;39.30;2022.40;;;;;;5042163;28;20025;-78
2021/03/07 04:41:32;;;;;;;;;;;39.30;2022.40;;;;;;5043959;28;20023;-78
2021/03/07 04:43:58;;;;;;;37.83;15.68;;;39.30;2022.40;;;;;;5023944;28;19988;-78
2021/03/07 04:46:24;;;;;;;;;;;39.30;2073.60;;;;;;5044490;28;20052;-77
2021/03/07 04:48:51;;;;;;;34.13;15.30;;;39.20;2099.20;;;;;;5044750;28;20014;-78
2021/03/07 04:51:17;;;;;;;34.13;15.98;;;39.20;2073.60;;;;;;5029598;28;20428;-77
2021/03/07 04:53:43;;;;;;;;;;;39.20;2073.60;;;;;;5028999;28;20049;-78
2021/03/07 04:56:09;;;;;;;34.55;15.77;;;39.10;2073.60;;;;;;5046126;28;20424;-76
2021/03/07 04:58:35;;;;;;;;;;;39.30;2073.60;;;;;;5031647;28;20528;-78
2021/03/07 05:01:01;;;;;;;38.08;18.02;;;39.20;2099.20;;;;;;5046580;28;19909;-77
2021/03/07 05:03:27;;;;;;;40.85;19.88;;;39.30;2124.80;;;;;;5045325;28;20018;-77
2021/03/07 05:05:52;;;;;;;;;;;39.10;2099.20;;;;;;5047390;28;20036;-77
2021/03/07 05:08:19;;;;;;;50.38;21.25;;;39.20;2124.80;;;;;;5027149;28;19996;-77
2021/03/07 05:10:44;;;;;;;45.88;18.55;;;39.30;2124.80;;;;;;5029390;28;20033;-77
2021/03/07 05:13:10;;;;;;;;;;;39.30;2150.40;;;;;;5027890;28;20183;-78
2021/03/07 05:15:37;;;;;;;45.33;18.60;;;64.00;2150.40;;;;;;5027739;28;19913;-78
2021/03/07 05:18:03;;;;;;;48.47;20.08;;;39.30;2176.00;;;;;;5027782;28;20041;-77
2021/03/07 05:20:28;;;;;;;;;;;39.30;2176.00;;;;;;5027766;28;20515;-78
2021/03/07 05:22:54;;;;;;;57.53;22.15;;;39.20;2176.00;;;;;;5029182;28;19959;-78
2021/03/07 05:25:19;;;;;;;;;;;39.20;2176.00;;;;;;5047017;28;20512;-78
2021/03/07 05:27:45;;;;;;;46.55;20.77;;;39.20;2176.00;;;;;;5027081;28;19905;-77
2021/03/07 05:30:11;;;;;;;;;;;39.10;2176.00;;;;;;5028052;28;20112;-78
2021/03/07 05:32:37;;;;;;;46.55;23.10;;;39.00;2150.40;;;;;;5048254;28;19955;-78
2021/03/07 05:35:03;;;;;;;;;;;39.00;2150.40;;;;;;5028975;28;20488;-78
2021/03/07 05:37:28;;;;;;;53.75;25.95;;;38.90;2150.40;;;;;;5027860;28;19924;-78
2021/03/07 05:39:54;;;;;;;;;;;38.80;2124.80;;;;;;5030199;28;20024;-78
2021/03/07 05:42:20;;;;;;;53.85;23.92;;;38.70;2099.20;;;;;;5027998;28;20437;-78
2021/03/07 05:44:45;;;;;;;56.25;24.65;;;38.80;2099.20;;;;;;5028991;28;20044;-77
2021/03/07 05:47:11;;;;;;;;;;;38.60;2073.60;;;;;;5025302;28;20036;-77
2021/03/07 05:49:39;;;;;;;59.75;25.40;;;38.60;2073.60;;;;;;5028510;28;19905;-77
2021/03/07 05:52:05;;;;;;;56.47;25.95;;;38.50;2073.60;;;;;;5029416;28;20028;-78
2021/03/07 05:54:30;;;;;;;;;;;38.40;2048.00;;;;;;5024205;28;20046;-77
2021/03/07 05:56:56;;;;;;;61.70;26.70;;;13.70;2022.40;;;;;;5043065;28;19917;-77
2021/03/07 05:59:23;;;;;;;57.53;27.50;;;13.60;2022.40;;;;;;5040769;28;20017;-78
2021/03/07 06:01:48;;;;;;;56.20;26.20;;;13.50;1996.80;;;;;;5024718;28;20076;-78
2021/03/07 06:04:14;;;;;;;58.10;24.67;;;13.40;1996.80;;;;;;5023715;28;20473;-78
2021/03/07 06:06:40;;;;;;;;;;;13.20;1971.20;;;;;;5026161;28;20485;-78
2021/03/07 06:09:18;;;;;;;65.07;26.92;;;13.10;1971.20;;;;;;5039702;28;19909;-78
2021/03/07 06:11:46;;;;;;;57.60;25.88;;;12.90;1971.20;;;;;;5021771;28;20076;-78
2021/03/07 06:14:25;;;;;;;54.40;26.65;;;0.00;1971.20;;;;;;5020700;28;20029;-77
2021/03/07 06:17:08;;;;;;;48.22;24.08;;;0.10;1971.20;;;;;;5022935;28;20030;-78
2021/03/07 06:20:14;;;;;;;62.03;28.20;;;0.40;1971.20;;;;;;5042636;28;20032;-77
2021/03/07 06:22:50;;;;;;;65.32;28.92;;;0.30;1996.80;;;;;;4931624;29;20036;-77
2021/03/07 06:25:16;;;;;;;74.03;33.33;;;0.10;2048.00;;;;;;4920054;29;20255;-77
2021/03/07 06:27:41;;;;;;;;;;;0.30;2124.80;;;;;;4920262;29;20032;-77
2021/03/07 06:30:11;;;;;;;59.47;29.88;;;0.50;2150.40;;;;;;4919459;29;19922;-77
2021/03/07 06:32:42;;;;;;;66.03;32.40;;;0.70;2099.20;;;;;;4935687;29;20019;-77
2021/03/07 06:35:12;;;;;;;58.13;29.35;;;0.80;2124.80;;;;;;4935164;29;20047;-77
2021/03/07 06:38:03;;;;;;;64.45;33.08;;;25.60;2099.20;;;;;;4916347;29;20048;-77
2021/03/07 06:40:33;;;;;;;73.45;33.45;;;26.00;2073.60;;;;;;4919015;29;20028;-77
2021/03/07 06:43:00;;;;;;;66.82;33.00;;;26.20;2048.00;;;;;;4919526;29;20103;-77
2021/03/07 06:45:41;;;;;;;72.78;33.50;;;26.10;2099.20;;;;;;4919539;29;20038;-78
2021/03/07 06:48:08;;;;;;;71.75;34.38;;;26.20;2099.20;;;;;;4919142;29;20126;-78
2021/03/07 06:50:35;;;;;;;75.03;35.95;;;26.10;2124.80;;;;;;4919372;29;20023;-78
2021/03/07 06:53:01;;;;;;;77.90;36.83;;;26.40;2124.80;;;;;;4950239;28;20026;-77
2021/03/07 06:55:40;;;;;;;67.60;34.90;;;51.20;2099.20;;;;;;5012919;28;20053;-77
2021/03/07 06:58:17;;;;;;;72.55;34.53;;;51.50;2099.20;;;;;;5023442;28;20057;-77
2021/03/07 07:00:44;;;;;;;72.43;33.53;;;51.80;2022.40;;;;;;5021981;28;20033;-77
2021/03/07 07:03:14;;;;;;;65.47;32.50;;;51.70;2048.00;;;;;;5038378;28;20046;-77
2021/03/07 07:05:42;;;;;;;60.60;32.03;;;51.70;2048.00;;;;;;5023061;28;20076;-78
2021/03/07 07:08:09;;;;;;;66.05;32.15;;;51.80;2048.00;;;;;;5021229;28;20469;-77
2021/03/07 07:10:56;;;;;;;60.75;31.83;;;51.90;2073.60;;;;;;5020877;28;20033;-78
2021/03/07 07:13:40;;;;;;;51.60;25.52;;;51.90;2048.00;;;;;;5020844;28;20030;-77
2021/03/07 07:16:09;;;;;;;64.10;32.78;;;52.10;2048.00;;;;;;5022390;28;20026;-77
2021/03/07 07:18:36;;;;;;;66.93;33.80;;;76.80;2022.40;;;;;;5021938;28;20017;-77
2021/03/07 07:21:05;;;;;;;56.22;30.98;;;76.90;1996.80;;;;;;5023786;28;20099;-77
2021/03/07 07:23:32;;;;;;;63.58;33.83;;;77.10;1945.60;;;;;;5039913;28;20032;-81
2021/03/07 07:25:58;;;;;;;66.60;34.83;;;77.30;1945.60;;;;;;5042654;28;20540;-78
2021/03/07 07:28:24;;;;;;;65.07;32.85;;;77.40;1920.00;;;;;;5023010;28;20053;-78
2021/03/07 07:30:59;;;;;;;66.55;34.60;;;77.30;1920.00;;;;;;5020687;28;20034;-78
2021/03/07 07:33:48;;;;;;;65.57;35.72;;;77.50;1894.40;;;;;;5023646;28;20025;-80
2021/03/07 07:36:34;;;;;;;74.63;41.03;;;77.50;1868.80;;;;;;5013897;28;20037;-77
2021/03/07 07:39:03;;;;;;;70.03;35.38;;;77.70;1868.80;;;;;;5014686;28;20049;-77
2021/03/07 07:41:35;;;;;;;75.15;35.40;;;102.60;1817.60;;;;;;5019848;28;20018;-78
2021/03/07 07:44:03;;;;;;;60.75;30.63;;;102.60;1792.00;;;;;;5024261;28;20014;-78
2021/03/07 07:46:29;;;;;;;61.60;30.30;;;102.50;1817.60;;;;;;5047461;28;20090;-77
2021/03/07 07:48:56;;;;;;;71.45;36.15;;;102.70;1766.40;;;;;;5030298;28;20085;-77
2021/03/07 07:51:38;;;;;;;60.40;31.35;;;102.60;1817.60;;;;;;5013998;28;20025;-77
2021/03/07 07:54:06;;;;;;;57.00;30.45;;;103.00;1766.40;;;;;;5022281;28;20052;-78
2021/03/07 07:56:40;;;;;;;56.45;30.25;;;103.00;1766.40;;;;;;5034673;28;20037;-77
2021/03/07 07:59:10;;;;;;;68.65;31.88;;;103.30;1740.80;;;;;;5033888;28;20524;-78
2021/03/07 08:01:51;;;;;;;41.80;24.13;;;103.30;1740.80;;;;;;5015692;28;20025;-77
2021/03/07 08:04:29;;;;;;;54.95;26.35;;;103.00;1638.40;;;;;;5015942;28;20032;-78
2021/03/07 08:07:03;;;;;;;43.35;21.85;;;128.00;1689.60;;;;;;5015978;28;20060;-78
2021/03/07 08:09:44;;;;;;;38.85;20.88;;;103.30;1612.80;;;;;;5033858;28;20033;-78
2021/03/07 08:12:44;;;;;;;41.47;22.33;;;128.10;1612.80;;;;;;5033835;28;20017;-78
2021/03/07 08:15:28;;;;;;;45.60;25.95;;;128.20;1638.40;;;;;;5033489;28;20078;-78
2021/03/07 08:17:55;;;;;;;34.85;18.48;;;128.40;1612.80;;;;;;5033208;28;20036;-78
2021/03/07 08:20:40;;;;;;;34.42;19.42;;;128.60;1484.80;;;;;;5033457;28;20026;-78
2021/03/07 08:23:15;;;;;;;35.60;18.58;;;128.70;1536.00;;;;;;5022956;28;20021;-77
2021/03/07 08:25:50;;;;;;;33.90;16.27;;;128.70;1484.80;;;;;;5019538;28;20016;-77
2021/03/07 08:28:28;;;;;;;34.50;18.45;;;128.60;1433.60;;;;;;5007273;28;20013;-77
2021/03/07 08:30:55;;;;;;;31.02;17.40;;;128.70;1433.60;;;;;;5015934;28;20037;-78
2021/03/07 08:33:29;;;;;;;27.15;13.35;;;128.80;1408.00;;;;;;5024271;28;20491;-78
2021/03/07 08:36:14;;;;;;;21.42;12.05;;;128.80;1382.40;;;;;;5015700;28;20025;-77
2021/03/07 08:38:51;;;;;;;24.70;13.25;;;153.60;1280.00;;;;;;5021250;28;20029;-78
2021/03/07 08:41:21;;;;;;;24.98;14.15;;;153.60;1254.40;;;;;;5016424;28;20052;-78
2021/03/07 08:43:57;;;;;;;28.48;15.55;;;153.70;1254.40;;;;;;5018729;28;20045;-77
2021/03/07 08:46:27;;;;;;;18.63;10.10;;;153.70;1254.40;;;;;;5022764;28;20465;-78
2021/03/07 08:48:56;;;;;;;23.60;12.73;;;153.60;1254.40;;;;;;5045985;28;20032;-79
2021/03/07 08:51:30;;;;;;;26.52;12.57;;;153.80;1254.40;;;;;;5038426;28;20021;-78
2021/03/07 08:54:03;;;;;;;21.08;12.18;;;154.00;1228.80;;;;;;5016367;28;20200;-77
2021/03/07 08:56:28;;;;;;;21.75;9.43;;;154.10;1152.00;;;;;;5016497;28;20083;-78
2021/03/07 08:58:55;;;;;;;22.23;10.48;;;154.20;1126.40;;;;;;5016479;28;20493;-78
2021/03/07 09:01:23;;;;;;;16.25;8.15;;;154.20;1203.20;;;;;;5015619;28;20033;-78
2021/03/07 09:03:56;;;;;;;14.82;7.63;;;154.20;1100.80;;;;;;5010435;28;20030;-78
2021/03/07 09:06:36;;;;;;;13.65;8.20;;;154.50;1126.40;;;;;;5017110;28;20105;-78
2021/03/07 09:09:12;;;;;;;16.13;8.70;;;154.30;1075.20;;;;;;5016212;28;20108;-78
2021/03/07 09:11:58;;;;;;;;;;;154.50;1126.40;;;;;;5019320;28;20025;-78
2021/03/07 09:14:37;;;;;;;12.55;6.03;;;154.40;1075.20;;;;;;5027030;28;20380;-78
2021/03/07 09:17:07;;;;;;;11.45;7.25;;;154.50;1075.20;;;;;;5034857;28;20037;-78
2021/03/07 09:19:40;;;;;;;17.35;7.07;;;154.50;1075.20;;;;;;5017308;28;20040;-80
2021/03/07 09:22:25;;;;;;;15.95;8.38;;;179.20;1049.60;;;;;;5018259;28;20026;-80
2021/03/07 09:24:58;;;;;;;11.88;7.07;;;179.50;1100.80;;;;;;5040638;28;20029;-79
2021/03/07 09:27:27;;;;;;;14.90;8.30;;;179.40;1024.00;;;;;;5030496;28;20485;-78
2021/03/07 09:30:04;;;;;;;16.17;8.68;;;179.50;1049.60;;;;;;5034292;28;20400;-78
2021/03/07 09:32:41;;;;;;;18.60;9.20;;;179.60;1049.60;;;;;;5050087;28;20082;-79
2021/03/07 09:35:27;;;;;;;14.65;7.03;;;180.00;1024.00;;;;;;5038198;28;20029;-78
2021/03/07 09:38:02;;;;;;;16.33;9.07;;;180.10;1049.60;;;;;;5023387;28;20045;-81
2021/03/07 09:40:39;;;;;;;14.20;8.85;;;180.10;1024.00;;;;;;5042453;28;20381;-78
2021/03/07 09:43:12;;;;;;;21.15;10.48;;;179.90;1024.00;;;;;;5029503;28;20029;-78
2021/03/07 09:45:51;;;;;;;16.17;8.43;;;180.10;1075.20;;;;;;5022587;28;20087;-78
2021/03/07 09:48:20;;;;;;;10.82;6.15;;;180.00;1024.00;;;;;;5025993;28;20037;-80
2021/03/07 09:50:46;;;;;;;10.70;7.10;;;204.90;998.40;;;;;;5038353;28;20018;-81
2021/03/07 09:53:13;;;;;;;11.45;7.38;;;205.10;998.40;;;;;;5029125;28;20030;-79
2021/03/07 09:55:40;;;;;;;14.00;7.63;;;205.20;972.80;;;;;;5025424;28;20538;-80
2021/03/07 09:58:08;;;;;;;19.77;9.35;;;205.10;921.60;;;;;;5023064;28;20036;-81
2021/03/07 10:00:36;;;;;;;11.90;7.05;;;205.30;921.60;;;;;;5040517;28;20018;-78
2021/03/07 10:03:03;;;;;;;14.07;6.88;;;205.50;896.00;;;;;;5022898;28;20025;-78
2021/03/07 10:05:29;;;;;;;9.82;6.13;;;205.30;870.40;;;;;;5039400;28;20060;-77
2021/03/07 10:07:55;;;;;;;12.50;7.13;;;205.70;896.00;;;;;;5022850;28;20033;-78
2021/03/07 10:10:23;;;;;;;;;;;230.50;870.40;;;;;;5013026;28;20037;-78
2021/03/07 10:12:56;;;;;;;17.98;9.55;;;230.90;844.80;;;;;;5016968;28;19916;-78
2021/03/07 10:15:31;;;;;;;20.05;10.60;;;231.30;896.00;;;;;;5027813;28;20017;-78
2021/03/07 10:17:59;;;;;;;19.40;9.95;;;256.10;844.80;;;;;;5035632;28;20037;-79
2021/03/07 10:20:40;;;;;;;13.00;8.23;;;256.20;870.40;;;;;;5024030;28;20473;-78
2021/03/07 10:23:07;;;;;;;14.88;8.73;;;231.30;819.20;;;;;;5039966;28;20055;-79
2021/03/07 10:25:38;;;;;;;19.33;10.35;;;231.10;844.80;;;;;;5023878;28;20021;-78
2021/03/07 10:28:10;;;;;;;15.88;9.73;;;231.20;870.40;;;;;;5041700;28;20025;-83
2021/03/07 10:30:44;;;;;;;12.57;8.18;;;231.10;844.80;;;;;;5022886;28;20381;-79
2021/03/07 10:33:26;;;;;;;12.93;7.32;;;231.20;844.80;;;;;;5015737;28;20041;-83
2021/03/07 10:36:01;;;;;;;12.80;6.80;;;256.20;819.20;;;;;;5024337;28;20053;-79
2021/03/07 10:38:28;;;;;;;11.20;6.55;;;281.60;793.60;;;;;;5035241;28;20056;-79
2021/03/07 10:40:53;;;;;;;17.48;8.45;;;281.70;742.40;;;;;;5019421;28;20128;-79
2021/03/07 10:43:19;;;;;;;;;;;256.70;793.60;;;;;;5043370;28;20097;-82
2021/03/07 10:45:46;;;;;;;10.27;5.80;;;281.60;768.00;;;;;;5023661;28;19917;-83
2021/03/07 10:48:13;;;;;;;7.40;4.93;;;256.90;716.80;;;;;;5044856;28;20493;-78
2021/03/07 10:50:48;;;;;;;11.18;4.97;;;281.60;768.00;;;;;;5043288;28;20041;-80
2021/03/07 10:53:16;;;;;;;9.13;5.47;;;282.00;768.00;;;;;;5015374;28;20036;-83
2021/03/07 10:55:49;;;;;;;8.02;4.10;;;281.70;742.40;;;;;;5015712;28;20044;-79
2021/03/07 10:58:15;;;;;;;6.75;4.50;;;281.90;716.80;;;;;;5030082;28;20115;-78
2021/03/07 11:00:41;;;;;;;;;;;281.70;716.80;;;;;;5016227;28;20073;-78
2021/03/07 11:03:06;;;;;;;14.15;8.02;;;282.10;742.40;;;;;;5019407;28;19913;-79
2021/03/07 11:05:32;;;;;;;;;;;281.80;768.00;;;;;;5016589;28;20033;-81
2021/03/07 11:07:58;;;;;;;11.48;6.53;;;281.80;716.80;;;;;;5016520;28;20347;-78
2021/03/07 11:10:23;;;;;;;;;;;282.10;716.80;;;;;;5034993;28;20354;-78
2021/03/07 11:12:50;;;;;;;7.57;4.88;;;282.20;716.80;;;;;;5016806;28;20368;-79
2021/03/07 11:15:16;;;;;;;7.22;5.30;;;282.20;691.20;;;;;;5016972;28;20033;-83
2021/03/07 11:17:42;;;;;;;20.30;10.27;;;281.80;691.20;;;;;;5033656;28;20116;-79
2021/03/07 11:20:10;;;;;;;13.80;7.57;;;256.90;716.80;;;;;;5029748;28;20100;-79
2021/03/07 11:22:36;;;;;;;13.35;5.75;;;282.10;665.60;;;;;;5027533;28;20029;-81
2021/03/07 11:25:03;;;;;;;8.40;5.10;;;282.50;665.60;;;;;;5007092;28;20500;-83
2021/03/07 11:27:29;;;;;;;13.48;6.40;;;307.60;716.80;;;;;;5012878;28;20120;-81
2021/03/07 11:29:55;;;;;;;12.48;5.82;;;282.10;665.60;;;;;;5024759;28;20112;-79
2021/03/07 11:32:20;;;;;;;;;;;282.20;665.60;;;;;;5027716;28;20048;-82
2021/03/07 11:34:46;;;;;;;8.95;5.47;;;282.00;691.20;;;;;;5026862;28;19974;-80
2021/03/07 11:37:11;;;;;;;;;;;282.30;716.80;;;;;;5029821;28;20468;-79
2021/03/07 11:39:37;;;;;;;9.15;5.63;;;307.30;716.80;;;;;;5031459;28;19962;-78
2021/03/07 11:42:03;;;;;;;;;;;307.50;691.20;;;;;;5039577;28;20029;-78
2021/03/07 11:44:28;;;;;;;10.93;6.32;;;307.30;716.80;;;;;;5032136;28;20269;-84
2021/03/07 11:46:54;;;;;;;;;;;307.60;640.00;;;;;;5038188;28;20036;-79
2021/03/07 11:49:20;;;;;;;35.75;19.02;;;307.40;665.60;;;;;;5014982;28;20322;-78
2021/03/07 11:51:46;;;;;;;10.20;6.15;;;307.40;691.20;;;;;;5014780;28;20024;-78
2021/03/07 11:54:12;;;;;;;11.38;6.28;;;307.80;691.20;;;;;;5011221;28;20050;-85
2021/03/07 11:56:37;;;;;;;;;;;333.10;640.00;;;;;;5015788;28;20137;-78
2021/03/07 11:59:03;;;;;;;11.85;6.82;;;332.80;614.40;;;;;;5015654;28;19912;-79
2021/03/07 12:01:29;;;;;;;;;;;308.00;640.00;;;;;;5015685;28;20030;-77
2021/03/07 12:03:55;;;;;;;9.88;5.60;;;308.00;588.80;;;;;;5015452;28;19916;-77
2021/03/07 12:06:20;;;;;;;;;;;332.80;614.40;;;;;;5033554;28;20076;-82
2021/03/07 12:08:46;;;;;;;28.23;15.07;;;333.20;640.00;;;;;;5021378;28;20319;-78
2021/03/07 12:11:12;;;;;;;;;;;333.10;665.60;;;;;;5020784;28;20029;-77
2021/03/07 12:13:37;;;;;;;11.48;6.18;;;333.20;640.00;;;;;;5045002;28;19908;-79
2021/03/07 12:16:03;;;;;;;;;;;332.80;691.20;;;;;;5038502;28;20013;-79
2021/03/07 12:18:30;;;;;;;9.63;6.30;;;308.00;691.20;;;;;;5040006;28;19924;-83
2021/03/07 12:20:56;;;;;;;9.30;5.25;;;333.20;665.60;;;;;;5023815;28;20029;-81
2021/03/07 12:23:22;;;;;;;10.57;6.07;;;332.80;716.80;;;;;;5026959;28;20495;-80
2021/03/07 12:25:48;;;;;;;11.05;5.72;;;333.30;640.00;;;;;;5022127;28;20029;-83
2021/03/07 12:28:14;;;;;;;9.13;5.38;;;333.60;640.00;;;;;;5020573;28;20484;-86
2021/03/07 12:30:41;;;;;;;;;;;358.40;640.00;;;;;;5046141;28;20031;-83
2021/03/07 12:33:06;;;;;;;7.40;4.63;;;358.70;665.60;;;;;;5047049;28;20050;-86
2021/03/07 12:35:32;;;;;;;;;;;358.40;665.60;;;;;;5043214;28;20051;-80